Nereus — SKTD — position and weather

sailwx.info

Track history (hours):
 
Tides and Currents Weather Stations Pressure Air Temp Water Temp Dewpoint Dewpoint Depression Visibility Wind Speed Wind Dir Waves Ship Positions

Oceanographic research ship Nereus (Sweden)

Detailed information on ship capabilities available from University of Delaware's Ocean Information Center.

Last reported at 2018-Feb-21 03:19 UTC. Time now 2018-Feb-21 03:35 UTC.
Position N 57°59' E 011°42'.

Length 16 m.

Type: Dredging. MMSI: 265599930.

Date/timePositionNaut miles runAvg speedWind from/ knotsBaromVisibWave heightAir tempDewpointWater temp
2018-Feb-21 03:19N 57°59' E 011°42'0 0.0
2018-Feb-21 02:52N 57°59' E 011°42'0 0.0
2018-Feb-21 02:28N 57°59' E 011°42'0 0.0
2018-Feb-21 01:55N 57°59' E 011°42'0 0.0
2018-Feb-21 01:25N 57°59' E 011°42'0 0.0
2018-Feb-21 00:55N 57°59' E 011°42'0 0.0
2018-Feb-21 00:07N 57°59' E 011°42'0 0.0
2018-Feb-20 23:49N 57°59' E 011°42'0 0.0
2018-Feb-20 23:25N 57°59' E 011°42'0 0.0
2018-Feb-20 22:55N 57°59' E 011°42'0 0.0
2018-Feb-20 22:25N 57°59' E 011°42'0 0.0
2018-Feb-20 21:58N 57°59' E 011°42'0 0.0
2018-Feb-20 21:25N 57°59' E 011°42'0 0.0
2018-Feb-20 20:55N 57°59' E 011°42'0 0.0
2018-Feb-20 20:13N 57°59' E 011°42'0 0.0
2018-Feb-20 19:49N 57°59' E 011°42'0 0.0
2018-Feb-20 19:13N 57°59' E 011°42'0 0.0
2018-Feb-20 18:49N 57°59' E 011°42'0 0.0
2018-Feb-20 18:25N 57°59' E 011°42'0 0.0
2018-Feb-20 17:55N 57°59' E 011°42'0 0.0
2018-Feb-20 17:25N 57°59' E 011°42'0 0.0
2018-Feb-20 16:55N 57°59' E 011°42'0 0.0
2018-Feb-20 16:25N 57°59' E 011°42'0 0.0
2018-Feb-20 15:43N 57°59' E 011°42'0 0.0
2018-Feb-20 15:25N 57°59' E 011°42'0 0.0
2018-Feb-20 14:55N 57°59' E 011°42'0 0.0
2018-Feb-20 14:25N 57°59' E 011°42'0 0.0
2018-Feb-20 14:00N 57°59' E 011°42'4 7.0
2018-Feb-20 13:29N 57°56' E 011°38'3 6.9
2018-Feb-20 12:59N 57°57' E 011°31'4 8.0
2018-Feb-20 12:30N 57°59' E 011°26'4 8.0
2018-Feb-20 12:00N 58°02' E 011°21'4 7.7
2018-Feb-20 11:30N 58°06' E 011°18'15 7.4
2018-Feb-20 09:32N 58°20' E 011°10'2 7.2
2018-Feb-20 09:17N 58°22' E 011°10'14 8.2
2018-Feb-20 07:34N 58°36' E 011°06'1 9.0
2018-Feb-20 07:26N 58°37' E 011°06'4 9.1
2018-Feb-20 07:00N 58°41' E 011°05'5 9.4
2018-Feb-20 06:30N 58°45' E 011°05'5 9.1
2018-Feb-20 06:00N 58°50' E 011°06'3 5.9
2018-Feb-20 05:29N 58°53' E 011°09'0 0.0
2018-Feb-20 04:59N 58°53' E 011°09'0 0.0
2018-Feb-20 04:26N 58°53' E 011°09'0 0.0
2018-Feb-20 03:59N 58°53' E 011°09'0 0.0
2018-Feb-20 03:26N 58°53' E 011°09'0 0.0
2018-Feb-20 02:59N 58°53' E 011°09'0 0.0
2018-Feb-20 02:29N 58°53' E 011°09'0 0.0
2018-Feb-20 01:59N 58°53' E 011°09'0 0.0
2018-Feb-20 01:29N 58°53' E 011°09'0 0.0
2018-Feb-20 00:59N 58°53' E 011°09'0 0.0
2018-Feb-20 00:29N 58°53' E 011°09'0 0.0
2018-Feb-19 23:59N 58°53' E 011°09'0 0.0
2018-Feb-19 23:29N 58°53' E 011°09'0 0.0
2018-Feb-19 22:59N 58°53' E 011°09'0 0.0
2018-Feb-19 22:29N 58°53' E 011°09'0 0.0
2018-Feb-19 21:59N 58°53' E 011°09'0 0.0
2018-Feb-19 21:23N 58°53' E 011°09'0 0.0
2018-Feb-19 20:56N 58°53' E 011°09'0 0.0
2018-Feb-19 20:29N 58°53' E 011°09'0 0.0
2018-Feb-19 19:59N 58°53' E 011°09'0 0.0
2018-Feb-19 19:29N 58°53' E 011°09'0 0.0
2018-Feb-19 18:59N 58°53' E 011°09'0 0.0
2018-Feb-19 18:29N 58°53' E 011°09'0 0.0
2018-Feb-19 17:59N 58°53' E 011°09'0 0.0
2018-Feb-19 17:29N 58°53' E 011°09'0 0.0
2018-Feb-19 16:59N 58°53' E 011°09'0 0.0
2018-Feb-19 16:29N 58°53' E 011°09'0 0.0
2018-Feb-19 15:59N 58°53' E 011°09'0 0.0
2018-Feb-19 15:29N 58°53' E 011°09'0 0.0
2018-Feb-19 14:59N 58°53' E 011°09'0 0.0
2018-Feb-19 14:29N 58°53' E 011°09'0 0.0
2018-Feb-19 13:59N 58°53' E 011°09'0 0.0
2018-Feb-19 13:29N 58°53' E 011°09'0 0.3
2018-Feb-19 13:00N 58°53' E 011°08'1 2.5
2018-Feb-19 12:30N 58°53' E 011°06'1 2.6
2018-Feb-19 11:58N 58°53' E 011°09'0 0.0
2018-Feb-19 11:28N 58°53' E 011°09'0 0.0
2018-Feb-19 10:58N 58°53' E 011°09'0 0.0
2018-Feb-19 10:28N 58°53' E 011°09'0 0.0
2018-Feb-19 09:55N 58°53' E 011°09'0 0.0
2018-Feb-19 09:28N 58°53' E 011°09'0 0.0
2018-Feb-19 08:58N 58°53' E 011°09'0 0.0
2018-Feb-19 08:25N 58°53' E 011°09'0 0.0
2018-Feb-19 07:58N 58°53' E 011°09'0 0.0
2018-Feb-19 07:28N 58°53' E 011°09'0 0.0
2018-Feb-19 06:58N 58°53' E 011°09'0 0.0
2018-Feb-19 06:28N 58°53' E 011°09'0 0.0
2018-Feb-19 05:58N 58°53' E 011°09'0 0.0
2018-Feb-19 05:28N 58°53' E 011°09'0 0.0
2018-Feb-19 04:58N 58°53' E 011°09'0 0.0
2018-Feb-19 04:28N 58°53' E 011°09'0 0.0
2018-Feb-19 03:58N 58°53' E 011°09'0 0.0
2018-Feb-19 03:28N 58°53' E 011°09'0 0.0
2018-Feb-19 02:58N 58°53' E 011°09'0 0.0
2018-Feb-19 02:28N 58°53' E 011°09'0 0.0
2018-Feb-19 01:55N 58°53' E 011°09'0 0.0
2018-Feb-19 01:28N 58°53' E 011°09'0 0.0
2018-Feb-19 00:58N 58°53' E 011°09'0 0.0
2018-Feb-19 00:28N 58°53' E 011°09'0 0.0
2018-Feb-18 23:58N 58°53' E 011°09'0 0.0
2018-Feb-18 23:28N 58°53' E 011°09'0 0.0
2018-Feb-18 22:58N 58°53' E 011°09'0 0.0
2018-Feb-18 22:28N 58°53' E 011°09'0 0.0
2018-Feb-18 21:58N 58°53' E 011°09'0 0.0
2018-Feb-18 21:28N 58°53' E 011°09'0 0.0
2018-Feb-18 20:58N 58°53' E 011°09'0 0.0
2018-Feb-18 20:28N 58°53' E 011°09'0 0.0
2018-Feb-18 19:58N 58°53' E 011°09'0 0.0
2018-Feb-18 19:28N 58°53' E 011°09'0 0.0
2018-Feb-18 18:58N 58°53' E 011°09'0 0.0
2018-Feb-18 18:28N 58°53' E 011°09'0 0.0
2018-Feb-18 17:58N 58°53' E 011°09'0 0.0
2018-Feb-18 17:28N 58°53' E 011°09'0 0.0
2018-Feb-18 16:58N 58°53' E 011°09'0 0.0
2018-Feb-18 16:28N 58°53' E 011°09'0 0.0
2018-Feb-18 15:58N 58°53' E 011°09'0 0.0
2018-Feb-18 15:28N 58°53' E 011°09'0 0.0
2018-Feb-18 14:58N 58°53' E 011°09'0 0.0
2018-Feb-18 14:28N 58°53' E 011°09'0 0.0
2018-Feb-18 13:58N 58°53' E 011°09'0 0.0
2018-Feb-18 13:28N 58°53' E 011°09'0 0.0
2018-Feb-18 12:58N 58°53' E 011°09'0 0.0
2018-Feb-18 12:28N 58°53' E 011°09'0 0.0
2018-Feb-18 11:58N 58°53' E 011°09'0 0.0
2018-Feb-18 11:28N 58°53' E 011°09'0 0.0
2018-Feb-18 10:58N 58°53' E 011°09'0 0.0
2018-Feb-18 10:28N 58°53' E 011°09'0 0.0
2018-Feb-18 09:58N 58°53' E 011°09'0 0.0
2018-Feb-18 09:25N 58°53' E 011°09'0 0.0
2018-Feb-18 08:58N 58°53' E 011°09'0 0.0
2018-Feb-18 08:28N 58°53' E 011°09'0 0.0
2018-Feb-18 07:58N 58°53' E 011°09'0 0.0
2018-Feb-18 07:28N 58°53' E 011°09'0 0.0
2018-Feb-18 06:58N 58°53' E 011°09'0 0.0
2018-Feb-18 06:28N 58°53' E 011°09'0 0.0
2018-Feb-18 05:58N 58°53' E 011°09'0 0.0
2018-Feb-18 05:28N 58°53' E 011°09'0 0.0
2018-Feb-18 04:58N 58°53' E 011°09'0 0.0
2018-Feb-18 04:28N 58°53' E 011°09'0 0.0
2018-Feb-18 03:58N 58°53' E 011°09'0 0.0
2018-Feb-18 03:28N 58°53' E 011°09'0 0.0
2018-Feb-18 02:58N 58°53' E 011°09'0 0.0
2018-Feb-18 02:28N 58°53' E 011°09'0 0.0
2018-Feb-18 01:58N 58°53' E 011°09'0 0.0
2018-Feb-18 01:28N 58°53' E 011°09'0 0.0
2018-Feb-18 00:58N 58°53' E 011°09'0 0.0
2018-Feb-18 00:28N 58°53' E 011°09'0 0.0
2018-Feb-17 23:58N 58°53' E 011°09'0 0.0
2018-Feb-17 23:28N 58°53' E 011°09'0 0.0
2018-Feb-17 22:58N 58°53' E 011°09'0 0.0
2018-Feb-17 22:28N 58°53' E 011°09'0 0.0
2018-Feb-17 21:58N 58°53' E 011°09'0 0.0
2018-Feb-17 21:28N 58°53' E 011°09'0 0.0
2018-Feb-17 20:58N 58°53' E 011°09'0 0.0
2018-Feb-17 20:28N 58°53' E 011°09'0 0.0
2018-Feb-17 19:58N 58°53' E 011°09'0 0.0
2018-Feb-17 19:28N 58°53' E 011°09'0 0.0
2018-Feb-17 18:58N 58°53' E 011°09'0 0.0
2018-Feb-17 18:28N 58°53' E 011°09'0 0.0
2018-Feb-17 17:58N 58°53' E 011°09'0 0.0
2018-Feb-17 17:28N 58°53' E 011°09'0 0.0
2018-Feb-17 16:58N 58°53' E 011°09'0 0.0
2018-Feb-17 16:28N 58°53' E 011°09'0 0.0
2018-Feb-17 15:58N 58°53' E 011°09'0 0.0
2018-Feb-17 15:28N 58°53' E 011°09'0 0.0
2018-Feb-17 14:58N 58°53' E 011°09'0 0.0
2018-Feb-17 14:28N 58°53' E 011°09'0 0.0
2018-Feb-17 13:58N 58°53' E 011°09'0 0.0
2018-Feb-17 13:28N 58°53' E 011°09'0 0.0
2018-Feb-17 12:52N 58°53' E 011°09'0 0.0
2018-Feb-17 12:28N 58°53' E 011°09'0 0.0
2018-Feb-17 11:55N 58°53' E 011°09'0 0.0
2018-Feb-17 11:28N 58°53' E 011°09'0 0.0
2018-Feb-17 10:58N 58°53' E 011°09'0 0.0
2018-Feb-17 10:28N 58°53' E 011°09'0 0.0
2018-Feb-17 09:58N 58°53' E 011°09'0 0.0
2018-Feb-17 09:28N 58°53' E 011°09'0 0.0
2018-Feb-17 08:58N 58°53' E 011°09'0 0.0
2018-Feb-17 08:28N 58°53' E 011°09'0 0.0
2018-Feb-17 07:55N 58°53' E 011°09'0 0.0
2018-Feb-17 07:28N 58°53' E 011°09'0 0.0
2018-Feb-17 06:58N 58°53' E 011°09'0 0.0
2018-Feb-17 06:28N 58°53' E 011°09'0 0.0
2018-Feb-17 05:58N 58°53' E 011°09'0 0.0
2018-Feb-17 05:25N 58°53' E 011°09'0 0.0
2018-Feb-17 04:58N 58°53' E 011°09'0 0.0
2018-Feb-17 04:28N 58°53' E 011°09'0 0.0
2018-Feb-17 03:58N 58°53' E 011°09'0 0.0
2018-Feb-17 03:28N 58°53' E 011°09'0 0.0
2018-Feb-17 02:58N 58°53' E 011°09'0 0.0
2018-Feb-17 02:28N 58°53' E 011°09'0 0.0
2018-Feb-17 01:58N 58°53' E 011°09'0 0.0
2018-Feb-17 01:28N 58°53' E 011°09'0 0.0
2018-Feb-17 00:58N 58°53' E 011°09'0 0.0
2018-Feb-17 00:25N 58°53' E 011°09'0 0.0
2018-Feb-16 23:58N 58°53' E 011°09'0 0.0
2018-Feb-16 23:25N 58°53' E 011°09'0 0.0
2018-Feb-16 22:58N 58°53' E 011°09'0 0.0
2018-Feb-16 22:28N 58°53' E 011°09'0 0.0
2018-Feb-16 21:58N 58°53' E 011°09'0 0.0
2018-Feb-16 21:28N 58°53' E 011°09'0 0.0
2018-Feb-16 20:58N 58°53' E 011°09'0 0.0
2018-Feb-16 20:28N 58°53' E 011°09'0 0.0
2018-Feb-16 19:58N 58°53' E 011°09'0 0.0
2018-Feb-16 19:28N 58°53' E 011°09'0 0.0
2018-Feb-16 18:58N 58°53' E 011°09'0 0.0
2018-Feb-16 18:28N 58°53' E 011°09'0 0.0
2018-Feb-16 17:58N 58°53' E 011°09'0 0.0
2018-Feb-16 17:28N 58°53' E 011°09'0 0.0
2018-Feb-16 16:58N 58°53' E 011°09'0 0.0
2018-Feb-16 16:25N 58°53' E 011°09'0 0.0
2018-Feb-16 15:58N 58°53' E 011°09'0 0.0
2018-Feb-16 15:28N 58°53' E 011°09'0 0.0
2018-Feb-16 14:58N 58°53' E 011°09'0 0.0
2018-Feb-16 14:28N 58°53' E 011°09'0 0.0
2018-Feb-16 13:58N 58°53' E 011°09'0 0.0
2018-Feb-16 13:25N 58°53' E 011°09'0 0.0
2018-Feb-16 12:58N 58°53' E 011°09'0 0.0
2018-Feb-16 12:28N 58°53' E 011°09'0 0.0
2018-Feb-16 11:58N 58°53' E 011°09'0 0.0
2018-Feb-16 11:28N 58°53' E 011°09'0 0.0
2018-Feb-16 10:58N 58°53' E 011°09'0 0.0
2018-Feb-16 10:28N 58°53' E 011°09'0 0.0
2018-Feb-16 09:58N 58°53' E 011°09'0 0.0
2018-Feb-16 09:28N 58°53' E 011°09'0 0.0
2018-Feb-16 08:58N 58°53' E 011°09'0 0.0
2018-Feb-16 08:28N 58°53' E 011°09'0 0.0
2018-Feb-16 07:58N 58°53' E 011°09'0 0.0
2018-Feb-16 07:28N 58°53' E 011°09'0 0.0
2018-Feb-16 06:58N 58°53' E 011°09'0 0.0
2018-Feb-16 06:28N 58°53' E 011°09'0 0.0
2018-Feb-16 05:58N 58°53' E 011°09'0 0.0
2018-Feb-16 05:28N 58°53' E 011°09'0 0.0
2018-Feb-16 04:52N 58°53' E 011°09'0 0.0
2018-Feb-16 04:28N 58°53' E 011°09'0 0.0
2018-Feb-16 03:58N 58°53' E 011°09'0 0.0
2018-Feb-16 03:28N 58°53' E 011°09'0 0.0
2018-Feb-16 02:58N 58°53' E 011°09'0 0.0
2018-Feb-16 02:28N 58°53' E 011°09'0 0.0
2018-Feb-16 01:58N 58°53' E 011°09'0 0.0
2018-Feb-16 01:28N 58°53' E 011°09'0 0.0
2018-Feb-16 00:58N 58°53' E 011°09'0 0.0
2018-Feb-16 00:28N 58°53' E 011°09'0 0.0
2018-Feb-15 23:58N 58°53' E 011°09'0 0.0
2018-Feb-15 23:19N 58°53' E 011°09'0 0.0
2018-Feb-15 22:58N 58°53' E 011°09'0 0.0
2018-Feb-15 22:28N 58°53' E 011°09'0 0.0
2018-Feb-15 21:58N 58°53' E 011°09'0 0.0
2018-Feb-15 21:28N 58°53' E 011°09'0 0.0
2018-Feb-15 20:58N 58°53' E 011°09'0 0.0
2018-Feb-15 20:29N 58°53' E 011°09'0 0.0
2018-Feb-15 19:58N 58°53' E 011°09'0 0.0
2018-Feb-15 19:29N 58°53' E 011°09'0 0.0
2018-Feb-15 18:55N 58°53' E 011°09'0 0.0
2018-Feb-15 18:26N 58°53' E 011°09'0 0.0
2018-Feb-15 17:59N 58°53' E 011°09'0 0.0
2018-Feb-15 17:29N 58°53' E 011°09'0 0.0
2018-Feb-15 16:59N 58°53' E 011°09'0 0.0
2018-Feb-15 16:29N 58°53' E 011°09'0 0.0
2018-Feb-15 15:59N 58°53' E 011°09'0 0.0
2018-Feb-15 15:29N 58°53' E 011°09'0 0.0
2018-Feb-15 14:59N 58°53' E 011°09'0 0.0
2018-Feb-15 14:29N 58°53' E 011°09'0 0.0
2018-Feb-15 13:59N 58°53' E 011°09'0 0.0
2018-Feb-15 13:29N 58°53' E 011°09'0 0.0
2018-Feb-15 12:59N 58°53' E 011°09'0 0.0
2018-Feb-15 12:23N 58°53' E 011°09'0 0.0
2018-Feb-15 11:59N 58°53' E 011°09'0 0.0
2018-Feb-15 11:29N 58°53' E 011°09'0 0.0
2018-Feb-15 10:56N 58°53' E 011°09'0 0.0
2018-Feb-15 10:29N 58°53' E 011°09'0 0.0
2018-Feb-15 09:59N 58°53' E 011°09'0 0.0
2018-Feb-15 09:29N 58°53' E 011°09'0 0.0
2018-Feb-15 08:59N 58°53' E 011°09'0 0.0
2018-Feb-15 08:29N 58°53' E 011°09'0 0.0
2018-Feb-15 07:59N 58°53' E 011°09'0 0.0
2018-Feb-15 07:29N 58°53' E 011°09'0 0.0
2018-Feb-15 06:59N 58°53' E 011°09'0 0.0
2018-Feb-15 06:20N 58°53' E 011°09'0 0.0
2018-Feb-15 05:59N 58°53' E 011°09'0 0.0
2018-Feb-15 05:29N 58°53' E 011°09'0 0.0
2018-Feb-15 04:59N 58°53' E 011°09'0 0.0
2018-Feb-15 04:29N 58°53' E 011°09'0 0.0
2018-Feb-15 03:59N 58°53' E 011°09'0 0.0
2018-Feb-15 03:29N 58°53' E 011°09'0 0.0
2018-Feb-15 02:59N 58°53' E 011°09'0 0.0
2018-Feb-15 02:29N 58°53' E 011°09'0 0.0
2018-Feb-15 01:59N 58°53' E 011°09'0 0.0
2018-Feb-15 01:29N 58°53' E 011°09'0 0.0
2018-Feb-15 00:59N 58°53' E 011°09'0 0.0
2018-Feb-15 00:29N 58°53' E 011°09'0 0.0
2018-Feb-14 23:59N 58°53' E 011°09'0 0.0
2018-Feb-14 23:29N 58°53' E 011°09'0 0.0
2018-Feb-14 22:59N 58°53' E 011°09'0 0.0
2018-Feb-14 22:29N 58°53' E 011°09'0 0.0
2018-Feb-14 21:59N 58°53' E 011°09'0 0.0
2018-Feb-14 21:29N 58°53' E 011°09'0 0.0
2018-Feb-14 20:59N 58°53' E 011°09'0 0.0
2018-Feb-14 20:29N 58°53' E 011°09'0 0.0
2018-Feb-14 19:59N 58°53' E 011°09'0 0.0
2018-Feb-14 19:29N 58°53' E 011°09'0 0.0
2018-Feb-14 18:59N 58°53' E 011°09'0 0.0
2018-Feb-14 18:26N 58°53' E 011°09'0 0.0
2018-Feb-14 17:59N 58°53' E 011°09'0 0.0
2018-Feb-14 17:29N 58°53' E 011°09'0 0.0
2018-Feb-14 16:59N 58°53' E 011°09'0 0.0
2018-Feb-14 16:29N 58°53' E 011°09'0 0.0
2018-Feb-14 15:59N 58°53' E 011°09'0 0.0
2018-Feb-14 15:29N 58°53' E 011°09'2 4.6
2018-Feb-14 15:00N 58°54' E 011°06'3 5.3
2018-Feb-14 14:28N 58°55' E 011°11'0 0.0
2018-Feb-14 13:58N 58°55' E 011°11'0 0.0
2018-Feb-14 13:28N 58°55' E 011°11'0 0.0
2018-Feb-14 12:58N 58°55' E 011°11'3 6.1
2018-Feb-14 12:30N 58°55' E 011°06'3 4.8
2018-Feb-14 11:59N 58°53' E 011°09'0 0.0
2018-Feb-14 11:29N 58°53' E 011°09'0 0.0
2018-Feb-14 10:59N 58°53' E 011°09'0 0.0
2018-Feb-14 10:29N 58°53' E 011°09'0 0.0
2018-Feb-14 09:59N 58°53' E 011°09'0 0.0
2018-Feb-14 09:29N 58°53' E 011°09'0 0.0
2018-Feb-14 08:59N 58°53' E 011°09'0 0.0
2018-Feb-14 08:29N 58°53' E 011°09'0 0.0
2018-Feb-14 07:59N 58°53' E 011°09'0 0.0
2018-Feb-14 07:29N 58°53' E 011°09'0 0.0
2018-Feb-14 06:59N 58°53' E 011°09'0 0.0
2018-Feb-14 06:29N 58°53' E 011°09'0 0.0
2018-Feb-14 05:59N 58°53' E 011°09'0 0.0
2018-Feb-14 05:29N 58°53' E 011°09'0 0.0
2018-Feb-14 04:59N 58°53' E 011°09'0 0.0
2018-Feb-14 04:29N 58°53' E 011°09'0 0.0
2018-Feb-14 03:59N 58°53' E 011°09'0 0.0
2018-Feb-14 03:29N 58°53' E 011°09'0 0.0
2018-Feb-14 02:59N 58°53' E 011°09'0 0.0
2018-Feb-14 02:29N 58°53' E 011°09'0 0.0
2018-Feb-14 01:59N 58°53' E 011°09'0 0.0
2018-Feb-14 01:29N 58°53' E 011°09'0 0.0
2018-Feb-14 00:59N 58°53' E 011°09'0 0.0
2018-Feb-14 00:29N 58°53' E 011°09'0 0.0
2018-Feb-13 23:59N 58°53' E 011°09'0 0.0
2018-Feb-13 23:23N 58°53' E 011°09'0 0.0
2018-Feb-13 22:59N 58°53' E 011°09'0 0.0
2018-Feb-13 22:29N 58°53' E 011°09'0 0.0
2018-Feb-13 21:59N 58°53' E 011°09'0 0.0
2018-Feb-13 21:29N 58°53' E 011°09'0 0.0
2018-Feb-13 20:59N 58°53' E 011°09'0 0.0
2018-Feb-13 20:23N 58°53' E 011°09'0 0.0
2018-Feb-13 19:59N 58°53' E 011°09'0 0.0
2018-Feb-13 19:29N 58°53' E 011°09'0 0.0
2018-Feb-13 18:59N 58°53' E 011°09'0 0.0
2018-Feb-13 18:29N 58°53' E 011°09'0 0.0
2018-Feb-13 17:59N 58°53' E 011°09'0 0.0
2018-Feb-13 17:29N 58°53' E 011°09'0 0.0
2018-Feb-13 16:59N 58°53' E 011°09'0 0.0
2018-Feb-13 16:29N 58°53' E 011°09'0 0.0
2018-Feb-13 15:59N 58°53' E 011°09'0 0.0
2018-Feb-13 15:26N 58°53' E 011°09'0 0.0
2018-Feb-13 14:59N 58°53' E 011°09'0 0.0
2018-Feb-13 14:26N 58°53' E 011°09'0 0.0
2018-Feb-13 13:59N 58°53' E 011°09'2 3.5
2018-Feb-13 13:30N 58°52' E 011°06'4 7.5
2018-Feb-13 13:00N 58°50' E 010°60'0 0.3
2018-Feb-13 12:29N 58°50' E 010°60'1 2.1
2018-Feb-13 12:00N 58°51' E 010°59'3 6.9
2018-Feb-13 11:30N 58°54' E 011°02'1 1.1
2018-Feb-13 10:55N 58°54' E 011°03'0 0.0
2018-Feb-13 10:28N 58°54' E 011°03'0 0.0
2018-Feb-13 09:58N 58°54' E 011°03'0 0.0
2018-Feb-13 09:28N 58°54' E 011°03'0 0.0
2018-Feb-13 08:58N 58°54' E 011°03'0 1.0
2018-Feb-13 08:30N 58°54' E 011°04'3 5.4
2018-Feb-13 08:00N 58°53' E 011°09'0 0.0
2018-Feb-13 07:30N 58°53' E 011°09'0 0.0
2018-Feb-13 07:00N 58°53' E 011°09'0 0.0
2018-Feb-13 06:30N 58°53' E 011°09'0 0.0
2018-Feb-13 06:00N 58°53' E 011°09'0 0.0
2018-Feb-13 05:30N 58°53' E 011°09'0 0.0
2018-Feb-13 05:00N 58°53' E 011°09'0 0.0
2018-Feb-13 04:30N 58°53' E 011°09'0 0.0
2018-Feb-13 04:00N 58°53' E 011°09'0 0.0
2018-Feb-13 03:27N 58°53' E 011°09'0 0.0
2018-Feb-13 03:00N 58°53' E 011°09'0 0.0
2018-Feb-13 02:30N 58°53' E 011°09'0 0.0
2018-Feb-13 02:00N 58°53' E 011°09'0 0.0
2018-Feb-13 01:30N 58°53' E 011°09'0 0.0
2018-Feb-13 01:00N 58°53' E 011°09'0 0.0
2018-Feb-13 00:30N 58°53' E 011°09'0 0.0
2018-Feb-13 00:00N 58°53' E 011°09'0 0.0
2018-Feb-12 23:30N 58°53' E 011°09'0 0.0
2018-Feb-12 23:00N 58°53' E 011°09'0 0.0
2018-Feb-12 22:30N 58°53' E 011°09'0 0.0
2018-Feb-12 22:00N 58°53' E 011°09'0 0.0
2018-Feb-12 21:30N 58°53' E 011°09'0 0.0
2018-Feb-12 21:00N 58°53' E 011°09'0 0.0
2018-Feb-12 20:30N 58°53' E 011°09'0 0.0
2018-Feb-12 20:00N 58°53' E 011°09'0 0.0
2018-Feb-12 19:30N 58°53' E 011°09'0 0.0
2018-Feb-12 19:00N 58°53' E 011°09'0 0.0
2018-Feb-12 18:30N 58°53' E 011°09'0 0.0
2018-Feb-12 18:00N 58°53' E 011°09'0 0.0
2018-Feb-12 17:30N 58°53' E 011°09'0 0.0
2018-Feb-12 16:57N 58°53' E 011°09'0 0.0
2018-Feb-12 16:30N 58°53' E 011°09'0 0.0
2018-Feb-12 16:00N 58°53' E 011°09'0 0.0
2018-Feb-12 15:18N 58°53' E 011°09'0 0.0
2018-Feb-12 15:00N 58°53' E 011°09'0 0.0
2018-Feb-12 14:30N 58°53' E 011°09'0 0.0
2018-Feb-12 14:00N 58°53' E 011°09'0 0.0
2018-Feb-12 13:30N 58°53' E 011°09'0 0.0
2018-Feb-12 13:00N 58°53' E 011°09'0 0.0
2018-Feb-12 12:30N 58°53' E 011°09'0 0.0
2018-Feb-12 12:00N 58°53' E 011°09'0 0.0
2018-Feb-12 11:30N 58°53' E 011°09'0 0.0
2018-Feb-12 11:00N 58°53' E 011°09'0 0.0
2018-Feb-12 10:30N 58°53' E 011°09'0 0.0
2018-Feb-12 10:00N 58°53' E 011°09'0 0.0
2018-Feb-12 09:30N 58°53' E 011°09'0 0.0
2018-Feb-12 09:00N 58°53' E 011°09'0 0.0
2018-Feb-12 08:30N 58°53' E 011°09'0 0.0
2018-Feb-12 08:00N 58°53' E 011°09'0 0.0
2018-Feb-12 07:30N 58°53' E 011°09'0 0.0
2018-Feb-12 07:00N 58°53' E 011°09'0 0.0
2018-Feb-12 06:30N 58°53' E 011°09'0 0.0
2018-Feb-12 06:00N 58°53' E 011°09'0 0.0
2018-Feb-12 05:30N 58°53' E 011°09'0 0.0
2018-Feb-12 05:00N 58°53' E 011°09'0 0.0
2018-Feb-12 04:30N 58°53' E 011°09'0 0.0
2018-Feb-12 04:00N 58°53' E 011°09'0 0.0
2018-Feb-12 03:30N 58°53' E 011°09'0 0.0
2018-Feb-12 03:00N 58°53' E 011°09'0 0.0
2018-Feb-12 02:30N 58°53' E 011°09'0 0.0
2018-Feb-12 02:00N 58°53' E 011°09'0 0.0
2018-Feb-12 01:30N 58°53' E 011°09'0 0.0
2018-Feb-12 01:00N 58°53' E 011°09'0 0.0
2018-Feb-12 00:27N 58°53' E 011°09'0 0.0
2018-Feb-12 00:00N 58°53' E 011°09'0 0.0
2018-Feb-11 23:27N 58°53' E 011°09'0 0.0
2018-Feb-11 23:00N 58°53' E 011°09'0 0.0
2018-Feb-11 22:30N 58°53' E 011°09'0 0.0
2018-Feb-11 22:00N 58°53' E 011°09'0 0.0
2018-Feb-11 21:30N 58°53' E 011°09'0 0.0
2018-Feb-11 21:00N 58°53' E 011°09'0 0.0
2018-Feb-11 20:27N 58°53' E 011°09'0 0.0
2018-Feb-11 20:00N 58°53' E 011°09'0 0.0
2018-Feb-11 19:30N 58°53' E 011°09'0 0.0
2018-Feb-11 18:57N 58°53' E 011°09'0 0.0
2018-Feb-11 18:30N 58°53' E 011°09'0 0.0
2018-Feb-11 18:00N 58°53' E 011°09'0 0.0
2018-Feb-11 17:30N 58°53' E 011°09'0 0.0
2018-Feb-11 17:00N 58°53' E 011°09'0 0.0
2018-Feb-11 16:30N 58°53' E 011°09'0 0.0
2018-Feb-11 16:00N 58°53' E 011°09'0 0.0
2018-Feb-11 15:30N 58°53' E 011°09'0 0.0
2018-Feb-11 15:00N 58°53' E 011°09'0 0.0
2018-Feb-11 14:30N 58°53' E 011°09'0 0.0
2018-Feb-11 14:00N 58°53' E 011°09'0 0.0
2018-Feb-11 13:30N 58°53' E 011°09'0 0.0
2018-Feb-11 13:00N 58°53' E 011°09'0 0.0
2018-Feb-11 12:30N 58°53' E 011°09'0 0.0
2018-Feb-11 12:00N 58°53' E 011°09'0 0.0
2018-Feb-11 11:30N 58°53' E 011°09'0 0.0
2018-Feb-11 11:00N 58°53' E 011°09'0 0.0
2018-Feb-11 10:30N 58°53' E 011°09'0 0.0
2018-Feb-11 10:00N 58°53' E 011°09'0 0.0
2018-Feb-11 09:30N 58°53' E 011°09'0 0.0
2018-Feb-11 09:00N 58°53' E 011°09'0 0.0
2018-Feb-11 08:30N 58°53' E 011°09'0 0.0
2018-Feb-11 08:00N 58°53' E 011°09'0 0.0
2018-Feb-11 07:30N 58°53' E 011°09'0 0.0
2018-Feb-11 06:57N 58°53' E 011°09'0 0.0
2018-Feb-11 06:30N 58°53' E 011°09'0 0.0
2018-Feb-11 06:00N 58°53' E 011°09'0 0.0
2018-Feb-11 05:30N 58°53' E 011°09'0 0.0
2018-Feb-11 05:00N 58°53' E 011°09'0 0.0
2018-Feb-11 04:30N 58°53' E 011°09'0 0.0
2018-Feb-11 04:00N 58°53' E 011°09'0 0.0
2018-Feb-11 03:30N 58°53' E 011°09'  
Track history (hours):
 
Tides and Currents Weather Stations Pressure Air Temp Water Temp Dewpoint Dewpoint Depression Visibility Wind Speed Wind Dir Waves Ship Positions

Oceanographic research ship Nereus (Sweden)

Detailed information on ship capabilities available from University of Delaware's Ocean Information Center.

Last reported at 2018-Feb-21 03:19 UTC. Time now 2018-Feb-21 03:35 UTC.
Position N 57°59' E 011°42'.

Length 16 m.

Type: Dredging. MMSI: 265599930.

Date/timePositionNaut miles runAvg speedWind from/ knotsBaromVisibWave heightAir tempDewpointWater temp
2018-Feb-21 03:19N 57°59' E 011°42'0 0.0
2018-Feb-21 02:52N 57°59' E 011°42'0 0.0
2018-Feb-21 02:28N 57°59' E 011°42'0 0.0
2018-Feb-21 01:55N 57°59' E 011°42'0 0.0
2018-Feb-21 01:25N 57°59' E 011°42'0 0.0
2018-Feb-21 00:55N 57°59' E 011°42'0 0.0
2018-Feb-21 00:07N 57°59' E 011°42'0 0.0
2018-Feb-20 23:49N 57°59' E 011°42'0 0.0
2018-Feb-20 23:25N 57°59' E 011°42'0 0.0
2018-Feb-20 22:55N 57°59' E 011°42'0 0.0
2018-Feb-20 22:25N 57°59' E 011°42'0 0.0
2018-Feb-20 21:58N 57°59' E 011°42'0 0.0
2018-Feb-20 21:25N 57°59' E 011°42'0 0.0
2018-Feb-20 20:55N 57°59' E 011°42'0 0.0
2018-Feb-20 20:13N 57°59' E 011°42'0 0.0
2018-Feb-20 19:49N 57°59' E 011°42'0 0.0
2018-Feb-20 19:13N 57°59' E 011°42'0 0.0
2018-Feb-20 18:49N 57°59' E 011°42'0 0.0
2018-Feb-20 18:25N 57°59' E 011°42'0 0.0
2018-Feb-20 17:55N 57°59' E 011°42'0 0.0
2018-Feb-20 17:25N 57°59' E 011°42'0 0.0
2018-Feb-20 16:55N 57°59' E 011°42'0 0.0
2018-Feb-20 16:25N 57°59' E 011°42'0 0.0
2018-Feb-20 15:43N 57°59' E 011°42'0 0.0
2018-Feb-20 15:25N 57°59' E 011°42'0 0.0
2018-Feb-20 14:55N 57°59' E 011°42'0 0.0
2018-Feb-20 14:25N 57°59' E 011°42'0 0.0
2018-Feb-20 14:00N 57°59' E 011°42'4 7.0
2018-Feb-20 13:29N 57°56' E 011°38'3 6.9
2018-Feb-20 12:59N 57°57' E 011°31'4 8.0
2018-Feb-20 12:30N 57°59' E 011°26'4 8.0
2018-Feb-20 12:00N 58°02' E 011°21'4 7.7
2018-Feb-20 11:30N 58°06' E 011°18'15 7.4
2018-Feb-20 09:32N 58°20' E 011°10'2 7.2
2018-Feb-20 09:17N 58°22' E 011°10'14 8.2
2018-Feb-20 07:34N 58°36' E 011°06'1 9.0
2018-Feb-20 07:26N 58°37' E 011°06'4 9.1
2018-Feb-20 07:00N 58°41' E 011°05'5 9.4
2018-Feb-20 06:30N 58°45' E 011°05'5 9.1
2018-Feb-20 06:00N 58°50' E 011°06'3 5.9
2018-Feb-20 05:29N 58°53' E 011°09'0 0.0
2018-Feb-20 04:59N 58°53' E 011°09'0 0.0
2018-Feb-20 04:26N 58°53' E 011°09'0 0.0
2018-Feb-20 03:59N 58°53' E 011°09'0 0.0
2018-Feb-20 03:26N 58°53' E 011°09'0 0.0
2018-Feb-20 02:59N 58°53' E 011°09'0 0.0
2018-Feb-20 02:29N 58°53' E 011°09'0 0.0
2018-Feb-20 01:59N 58°53' E 011°09'0 0.0
2018-Feb-20 01:29N 58°53' E 011°09'0 0.0
2018-Feb-20 00:59N 58°53' E 011°09'0 0.0
2018-Feb-20 00:29N 58°53' E 011°09'0 0.0
2018-Feb-19 23:59N 58°53' E 011°09'0 0.0
2018-Feb-19 23:29N 58°53' E 011°09'0 0.0
2018-Feb-19 22:59N 58°53' E 011°09'0 0.0
2018-Feb-19 22:29N 58°53' E 011°09'0 0.0
2018-Feb-19 21:59N 58°53' E 011°09'0 0.0
2018-Feb-19 21:23N 58°53' E 011°09'0 0.0
2018-Feb-19 20:56N 58°53' E 011°09'0 0.0
2018-Feb-19 20:29N 58°53' E 011°09'0 0.0
2018-Feb-19 19:59N 58°53' E 011°09'0 0.0
2018-Feb-19 19:29N 58°53' E 011°09'0 0.0
2018-Feb-19 18:59N 58°53' E 011°09'0 0.0
2018-Feb-19 18:29N 58°53' E 011°09'0 0.0
2018-Feb-19 17:59N 58°53' E 011°09'0 0.0
2018-Feb-19 17:29N 58°53' E 011°09'0 0.0
2018-Feb-19 16:59N 58°53' E 011°09'0 0.0
2018-Feb-19 16:29N 58°53' E 011°09'0 0.0
2018-Feb-19 15:59N 58°53' E 011°09'0 0.0
2018-Feb-19 15:29N 58°53' E 011°09'0 0.0
2018-Feb-19 14:59N 58°53' E 011°09'0 0.0
2018-Feb-19 14:29N 58°53' E 011°09'0 0.0
2018-Feb-19 13:59N 58°53' E 011°09'0 0.0
2018-Feb-19 13:29N 58°53' E 011°09'0 0.3
2018-Feb-19 13:00N 58°53' E 011°08'1 2.5
2018-Feb-19 12:30N 58°53' E 011°06'1 2.6
2018-Feb-19 11:58N 58°53' E 011°09'0 0.0
2018-Feb-19 11:28N 58°53' E 011°09'0 0.0
2018-Feb-19 10:58N 58°53' E 011°09'0 0.0
2018-Feb-19 10:28N 58°53' E 011°09'0 0.0
2018-Feb-19 09:55N 58°53' E 011°09'0 0.0
2018-Feb-19 09:28N 58°53' E 011°09'0 0.0
2018-Feb-19 08:58N 58°53' E 011°09'0 0.0
2018-Feb-19 08:25N 58°53' E 011°09'0 0.0
2018-Feb-19 07:58N 58°53' E 011°09'0 0.0
2018-Feb-19 07:28N 58°53' E 011°09'0 0.0
2018-Feb-19 06:58N 58°53' E 011°09'0 0.0
2018-Feb-19 06:28N 58°53' E 011°09'0 0.0
2018-Feb-19 05:58N 58°53' E 011°09'0 0.0
2018-Feb-19 05:28N 58°53' E 011°09'0 0.0
2018-Feb-19 04:58N 58°53' E 011°09'0 0.0
2018-Feb-19 04:28N 58°53' E 011°09'0 0.0
2018-Feb-19 03:58N 58°53' E 011°09'0 0.0
2018-Feb-19 03:28N 58°53' E 011°09'0 0.0
2018-Feb-19 02:58N 58°53' E 011°09'0 0.0
2018-Feb-19 02:28N 58°53' E 011°09'0 0.0
2018-Feb-19 01:55N 58°53' E 011°09'0 0.0
2018-Feb-19 01:28N 58°53' E 011°09'0 0.0
2018-Feb-19 00:58N 58°53' E 011°09'0 0.0
2018-Feb-19 00:28N 58°53' E 011°09'0 0.0
2018-Feb-18 23:58N 58°53' E 011°09'0 0.0
2018-Feb-18 23:28N 58°53' E 011°09'0 0.0
2018-Feb-18 22:58N 58°53' E 011°09'0 0.0
2018-Feb-18 22:28N 58°53' E 011°09'0 0.0
2018-Feb-18 21:58N 58°53' E 011°09'0 0.0
2018-Feb-18 21:28N 58°53' E 011°09'0 0.0
2018-Feb-18 20:58N 58°53' E 011°09'0 0.0
2018-Feb-18 20:28N 58°53' E 011°09'0 0.0
2018-Feb-18 19:58N 58°53' E 011°09'0 0.0
2018-Feb-18 19:28N 58°53' E 011°09'0 0.0
2018-Feb-18 18:58N 58°53' E 011°09'0 0.0
2018-Feb-18 18:28N 58°53' E 011°09'0 0.0
2018-Feb-18 17:58N 58°53' E 011°09'0 0.0
2018-Feb-18 17:28N 58°53' E 011°09'0 0.0
2018-Feb-18 16:58N 58°53' E 011°09'0 0.0
2018-Feb-18 16:28N 58°53' E 011°09'0 0.0
2018-Feb-18 15:58N 58°53' E 011°09'0 0.0
2018-Feb-18 15:28N 58°53' E 011°09'0 0.0
2018-Feb-18 14:58N 58°53' E 011°09'0 0.0
2018-Feb-18 14:28N 58°53' E 011°09'0 0.0
2018-Feb-18 13:58N 58°53' E 011°09'0 0.0
2018-Feb-18 13:28N 58°53' E 011°09'0 0.0
2018-Feb-18 12:58N 58°53' E 011°09'0 0.0
2018-Feb-18 12:28N 58°53' E 011°09'0 0.0
2018-Feb-18 11:58N 58°53' E 011°09'0 0.0
2018-Feb-18 11:28N 58°53' E 011°09'0 0.0
2018-Feb-18 10:58N 58°53' E 011°09'0 0.0
2018-Feb-18 10:28N 58°53' E 011°09'0 0.0
2018-Feb-18 09:58N 58°53' E 011°09'0 0.0
2018-Feb-18 09:25N 58°53' E 011°09'0 0.0
2018-Feb-18 08:58N 58°53' E 011°09'0 0.0
2018-Feb-18 08:28N 58°53' E 011°09'0 0.0
2018-Feb-18 07:58N 58°53' E 011°09'0 0.0
2018-Feb-18 07:28N 58°53' E 011°09'0 0.0
2018-Feb-18 06:58N 58°53' E 011°09'0 0.0
2018-Feb-18 06:28N 58°53' E 011°09'0 0.0
2018-Feb-18 05:58N 58°53' E 011°09'0 0.0
2018-Feb-18 05:28N 58°53' E 011°09'0 0.0
2018-Feb-18 04:58N 58°53' E 011°09'0 0.0
2018-Feb-18 04:28N 58°53' E 011°09'0 0.0
2018-Feb-18 03:58N 58°53' E 011°09'0 0.0
2018-Feb-18 03:28N 58°53' E 011°09'0 0.0
2018-Feb-18 02:58N 58°53' E 011°09'0 0.0
2018-Feb-18 02:28N 58°53' E 011°09'0 0.0
2018-Feb-18 01:58N 58°53' E 011°09'0 0.0
2018-Feb-18 01:28N 58°53' E 011°09'0 0.0
2018-Feb-18 00:58N 58°53' E 011°09'0 0.0
2018-Feb-18 00:28N 58°53' E 011°09'0 0.0
2018-Feb-17 23:58N 58°53' E 011°09'0 0.0
2018-Feb-17 23:28N 58°53' E 011°09'0 0.0
2018-Feb-17 22:58N 58°53' E 011°09'0 0.0
2018-Feb-17 22:28N 58°53' E 011°09'0 0.0
2018-Feb-17 21:58N 58°53' E 011°09'0 0.0
2018-Feb-17 21:28N 58°53' E 011°09'0 0.0
2018-Feb-17 20:58N 58°53' E 011°09'0 0.0
2018-Feb-17 20:28N 58°53' E 011°09'0 0.0
2018-Feb-17 19:58N 58°53' E 011°09'0 0.0
2018-Feb-17 19:28N 58°53' E 011°09'0 0.0
2018-Feb-17 18:58N 58°53' E 011°09'0 0.0
2018-Feb-17 18:28N 58°53' E 011°09'0 0.0
2018-Feb-17 17:58N 58°53' E 011°09'0 0.0
2018-Feb-17 17:28N 58°53' E 011°09'0 0.0
2018-Feb-17 16:58N 58°53' E 011°09'0 0.0
2018-Feb-17 16:28N 58°53' E 011°09'0 0.0
2018-Feb-17 15:58N 58°53' E 011°09'0 0.0
2018-Feb-17 15:28N 58°53' E 011°09'0 0.0
2018-Feb-17 14:58N 58°53' E 011°09'0 0.0
2018-Feb-17 14:28N 58°53' E 011°09'0 0.0
2018-Feb-17 13:58N 58°53' E 011°09'0 0.0
2018-Feb-17 13:28N 58°53' E 011°09'0 0.0
2018-Feb-17 12:52N 58°53' E 011°09'0 0.0
2018-Feb-17 12:28N 58°53' E 011°09'0 0.0
2018-Feb-17 11:55N 58°53' E 011°09'0 0.0
2018-Feb-17 11:28N 58°53' E 011°09'0 0.0
2018-Feb-17 10:58N 58°53' E 011°09'0 0.0
2018-Feb-17 10:28N 58°53' E 011°09'0 0.0
2018-Feb-17 09:58N 58°53' E 011°09'0 0.0
2018-Feb-17 09:28N 58°53' E 011°09'0 0.0
2018-Feb-17 08:58N 58°53' E 011°09'0 0.0
2018-Feb-17 08:28N 58°53' E 011°09'0 0.0
2018-Feb-17 07:55N 58°53' E 011°09'0 0.0
2018-Feb-17 07:28N 58°53' E 011°09'0 0.0
2018-Feb-17 06:58N 58°53' E 011°09'0 0.0
2018-Feb-17 06:28N 58°53' E 011°09'0 0.0
2018-Feb-17 05:58N 58°53' E 011°09'0 0.0
2018-Feb-17 05:25N 58°53' E 011°09'0 0.0
2018-Feb-17 04:58N 58°53' E 011°09'0 0.0
2018-Feb-17 04:28N 58°53' E 011°09'0 0.0
2018-Feb-17 03:58N 58°53' E 011°09'0 0.0
2018-Feb-17 03:28N 58°53' E 011°09'0 0.0
2018-Feb-17 02:58N 58°53' E 011°09'0 0.0
2018-Feb-17 02:28N 58°53' E 011°09'0 0.0
2018-Feb-17 01:58N 58°53' E 011°09'0 0.0
2018-Feb-17 01:28N 58°53' E 011°09'0 0.0
2018-Feb-17 00:58N 58°53' E 011°09'0 0.0
2018-Feb-17 00:25N 58°53' E 011°09'0 0.0
2018-Feb-16 23:58N 58°53' E 011°09'0 0.0
2018-Feb-16 23:25N 58°53' E 011°09'0 0.0
2018-Feb-16 22:58N 58°53' E 011°09'0 0.0
2018-Feb-16 22:28N 58°53' E 011°09'0 0.0
2018-Feb-16 21:58N 58°53' E 011°09'0 0.0
2018-Feb-16 21:28N 58°53' E 011°09'0 0.0
2018-Feb-16 20:58N 58°53' E 011°09'0 0.0
2018-Feb-16 20:28N 58°53' E 011°09'0 0.0
2018-Feb-16 19:58N 58°53' E 011°09'0 0.0
2018-Feb-16 19:28N 58°53' E 011°09'0 0.0
2018-Feb-16 18:58N 58°53' E 011°09'0 0.0
2018-Feb-16 18:28N 58°53' E 011°09'0 0.0
2018-Feb-16 17:58N 58°53' E 011°09'0 0.0
2018-Feb-16 17:28N 58°53' E 011°09'0 0.0
2018-Feb-16 16:58N 58°53' E 011°09'0 0.0
2018-Feb-16 16:25N 58°53' E 011°09'0 0.0
2018-Feb-16 15:58N 58°53' E 011°09'0 0.0
2018-Feb-16 15:28N 58°53' E 011°09'0 0.0
2018-Feb-16 14:58N 58°53' E 011°09'0 0.0
2018-Feb-16 14:28N 58°53' E 011°09'0 0.0
2018-Feb-16 13:58N 58°53' E 011°09'0 0.0
2018-Feb-16 13:25N 58°53' E 011°09'0 0.0
2018-Feb-16 12:58N 58°53' E 011°09'0 0.0
2018-Feb-16 12:28N 58°53' E 011°09'0 0.0
2018-Feb-16 11:58N 58°53' E 011°09'0 0.0
2018-Feb-16 11:28N 58°53' E 011°09'0 0.0
2018-Feb-16 10:58N 58°53' E 011°09'0 0.0
2018-Feb-16 10:28N 58°53' E 011°09'0 0.0
2018-Feb-16 09:58N 58°53' E 011°09'0 0.0
2018-Feb-16 09:28N 58°53' E 011°09'0 0.0
2018-Feb-16 08:58N 58°53' E 011°09'0 0.0
2018-Feb-16 08:28N 58°53' E 011°09'0 0.0
2018-Feb-16 07:58N 58°53' E 011°09'0 0.0
2018-Feb-16 07:28N 58°53' E 011°09'0 0.0
2018-Feb-16 06:58N 58°53' E 011°09'0 0.0
2018-Feb-16 06:28N 58°53' E 011°09'0 0.0
2018-Feb-16 05:58N 58°53' E 011°09'0 0.0
2018-Feb-16 05:28N 58°53' E 011°09'0 0.0
2018-Feb-16 04:52N 58°53' E 011°09'0 0.0
2018-Feb-16 04:28N 58°53' E 011°09'0 0.0
2018-Feb-16 03:58N 58°53' E 011°09'0 0.0
2018-Feb-16 03:28N 58°53' E 011°09'0 0.0
2018-Feb-16 02:58N 58°53' E 011°09'0 0.0
2018-Feb-16 02:28N 58°53' E 011°09'0 0.0
2018-Feb-16 01:58N 58°53' E 011°09'0 0.0
2018-Feb-16 01:28N 58°53' E 011°09'0 0.0
2018-Feb-16 00:58N 58°53' E 011°09'0 0.0
2018-Feb-16 00:28N 58°53' E 011°09'0 0.0
2018-Feb-15 23:58N 58°53' E 011°09'0 0.0
2018-Feb-15 23:19N 58°53' E 011°09'0 0.0
2018-Feb-15 22:58N 58°53' E 011°09'0 0.0
2018-Feb-15 22:28N 58°53' E 011°09'0 0.0
2018-Feb-15 21:58N 58°53' E 011°09'0 0.0
2018-Feb-15 21:28N 58°53' E 011°09'0 0.0
2018-Feb-15 20:58N 58°53' E 011°09'0 0.0
2018-Feb-15 20:29N 58°53' E 011°09'0 0.0
2018-Feb-15 19:58N 58°53' E 011°09'0 0.0
2018-Feb-15 19:29N 58°53' E 011°09'0 0.0
2018-Feb-15 18:55N 58°53' E 011°09'0 0.0
2018-Feb-15 18:26N 58°53' E 011°09'0 0.0
2018-Feb-15 17:59N 58°53' E 011°09'0 0.0
2018-Feb-15 17:29N 58°53' E 011°09'0 0.0
2018-Feb-15 16:59N 58°53' E 011°09'0 0.0
2018-Feb-15 16:29N 58°53' E 011°09'0 0.0
2018-Feb-15 15:59N 58°53' E 011°09'0 0.0
2018-Feb-15 15:29N 58°53' E 011°09'0 0.0
2018-Feb-15 14:59N 58°53' E 011°09'0 0.0
2018-Feb-15 14:29N 58°53' E 011°09'0 0.0
2018-Feb-15 13:59N 58°53' E 011°09'0 0.0
2018-Feb-15 13:29N 58°53' E 011°09'0 0.0
2018-Feb-15 12:59N 58°53' E 011°09'0 0.0
2018-Feb-15 12:23N 58°53' E 011°09'0 0.0
2018-Feb-15 11:59N 58°53' E 011°09'0 0.0
2018-Feb-15 11:29N 58°53' E 011°09'0 0.0
2018-Feb-15 10:56N 58°53' E 011°09'0 0.0
2018-Feb-15 10:29N 58°53' E 011°09'0 0.0
2018-Feb-15 09:59N 58°53' E 011°09'0 0.0
2018-Feb-15 09:29N 58°53' E 011°09'0 0.0
2018-Feb-15 08:59N 58°53' E 011°09'0 0.0
2018-Feb-15 08:29N 58°53' E 011°09'0 0.0
2018-Feb-15 07:59N 58°53' E 011°09'0 0.0
2018-Feb-15 07:29N 58°53' E 011°09'0 0.0
2018-Feb-15 06:59N 58°53' E 011°09'0 0.0
2018-Feb-15 06:20N 58°53' E 011°09'0 0.0
2018-Feb-15 05:59N 58°53' E 011°09'0 0.0
2018-Feb-15 05:29N 58°53' E 011°09'0 0.0
2018-Feb-15 04:59N 58°53' E 011°09'0 0.0
2018-Feb-15 04:29N 58°53' E 011°09'0 0.0
2018-Feb-15 03:59N 58°53' E 011°09'0 0.0
2018-Feb-15 03:29N 58°53' E 011°09'0 0.0
2018-Feb-15 02:59N 58°53' E 011°09'0 0.0
2018-Feb-15 02:29N 58°53' E 011°09'0 0.0
2018-Feb-15 01:59N 58°53' E 011°09'0 0.0
2018-Feb-15 01:29N 58°53' E 011°09'0 0.0
2018-Feb-15 00:59N 58°53' E 011°09'0 0.0
2018-Feb-15 00:29N 58°53' E 011°09'0 0.0
2018-Feb-14 23:59N 58°53' E 011°09'0 0.0
2018-Feb-14 23:29N 58°53' E 011°09'0 0.0
2018-Feb-14 22:59N 58°53' E 011°09'0 0.0
2018-Feb-14 22:29N 58°53' E 011°09'0 0.0
2018-Feb-14 21:59N 58°53' E 011°09'0 0.0
2018-Feb-14 21:29N 58°53' E 011°09'0 0.0
2018-Feb-14 20:59N 58°53' E 011°09'0 0.0
2018-Feb-14 20:29N 58°53' E 011°09'0 0.0
2018-Feb-14 19:59N 58°53' E 011°09'0 0.0
2018-Feb-14 19:29N 58°53' E 011°09'0 0.0
2018-Feb-14 18:59N 58°53' E 011°09'0 0.0
2018-Feb-14 18:26N 58°53' E 011°09'0 0.0
2018-Feb-14 17:59N 58°53' E 011°09'0 0.0
2018-Feb-14 17:29N 58°53' E 011°09'0 0.0
2018-Feb-14 16:59N 58°53' E 011°09'0 0.0
2018-Feb-14 16:29N 58°53' E 011°09'0 0.0
2018-Feb-14 15:59N 58°53' E 011°09'0 0.0
2018-Feb-14 15:29N 58°53' E 011°09'2 4.6
2018-Feb-14 15:00N 58°54' E 011°06'3 5.3
2018-Feb-14 14:28N 58°55' E 011°11'0 0.0
2018-Feb-14 13:58N 58°55' E 011°11'0 0.0
2018-Feb-14 13:28N 58°55' E 011°11'0 0.0
2018-Feb-14 12:58N 58°55' E 011°11'3 6.1
2018-Feb-14 12:30N 58°55' E 011°06'3 4.8
2018-Feb-14 11:59N 58°53' E 011°09'0 0.0
2018-Feb-14 11:29N 58°53' E 011°09'0 0.0
2018-Feb-14 10:59N 58°53' E 011°09'0 0.0
2018-Feb-14 10:29N 58°53' E 011°09'0 0.0
2018-Feb-14 09:59N 58°53' E 011°09'0 0.0
2018-Feb-14 09:29N 58°53' E 011°09'0 0.0
2018-Feb-14 08:59N 58°53' E 011°09'0 0.0
2018-Feb-14 08:29N 58°53' E 011°09'0 0.0
2018-Feb-14 07:59N 58°53' E 011°09'0 0.0
2018-Feb-14 07:29N 58°53' E 011°09'0 0.0
2018-Feb-14 06:59N 58°53' E 011°09'0 0.0
2018-Feb-14 06:29N 58°53' E 011°09'0 0.0
2018-Feb-14 05:59N 58°53' E 011°09'0 0.0
2018-Feb-14 05:29N 58°53' E 011°09'0 0.0
2018-Feb-14 04:59N 58°53' E 011°09'0 0.0
2018-Feb-14 04:29N 58°53' E 011°09'0 0.0
2018-Feb-14 03:59N 58°53' E 011°09'0 0.0
2018-Feb-14 03:29N 58°53' E 011°09'0 0.0
2018-Feb-14 02:59N 58°53' E 011°09'0 0.0
2018-Feb-14 02:29N 58°53' E 011°09'0 0.0
2018-Feb-14 01:59N 58°53' E 011°09'0 0.0
2018-Feb-14 01:29N 58°53' E 011°09'0 0.0
2018-Feb-14 00:59N 58°53' E 011°09'0 0.0
2018-Feb-14 00:29N 58°53' E 011°09'0 0.0
2018-Feb-13 23:59N 58°53' E 011°09'0 0.0
2018-Feb-13 23:23N 58°53' E 011°09'0 0.0
2018-Feb-13 22:59N 58°53' E 011°09'0 0.0
2018-Feb-13 22:29N 58°53' E 011°09'0 0.0
2018-Feb-13 21:59N 58°53' E 011°09'0 0.0
2018-Feb-13 21:29N 58°53' E 011°09'0 0.0
2018-Feb-13 20:59N 58°53' E 011°09'0 0.0
2018-Feb-13 20:23N 58°53' E 011°09'0 0.0
2018-Feb-13 19:59N 58°53' E 011°09'0 0.0
2018-Feb-13 19:29N 58°53' E 011°09'0 0.0
2018-Feb-13 18:59N 58°53' E 011°09'0 0.0
2018-Feb-13 18:29N 58°53' E 011°09'0 0.0
2018-Feb-13 17:59N 58°53' E 011°09'0 0.0
2018-Feb-13 17:29N 58°53' E 011°09'0 0.0
2018-Feb-13 16:59N 58°53' E 011°09'0 0.0
2018-Feb-13 16:29N 58°53' E 011°09'0 0.0
2018-Feb-13 15:59N 58°53' E 011°09'0 0.0
2018-Feb-13 15:26N 58°53' E 011°09'0 0.0
2018-Feb-13 14:59N 58°53' E 011°09'0 0.0
2018-Feb-13 14:26N 58°53' E 011°09'0 0.0
2018-Feb-13 13:59N 58°53' E 011°09'2 3.5
2018-Feb-13 13:30N 58°52' E 011°06'4 7.5
2018-Feb-13 13:00N 58°50' E 010°60'0 0.3
2018-Feb-13 12:29N 58°50' E 010°60'1 2.1
2018-Feb-13 12:00N 58°51' E 010°59'3 6.9
2018-Feb-13 11:30N 58°54' E 011°02'1 1.1
2018-Feb-13 10:55N 58°54' E 011°03'0 0.0
2018-Feb-13 10:28N 58°54' E 011°03'0 0.0
2018-Feb-13 09:58N 58°54' E 011°03'0 0.0
2018-Feb-13 09:28N 58°54' E 011°03'0 0.0
2018-Feb-13 08:58N 58°54' E 011°03'0 1.0
2018-Feb-13 08:30N 58°54' E 011°04'3 5.4
2018-Feb-13 08:00N 58°53' E 011°09'0 0.0
2018-Feb-13 07:30N 58°53' E 011°09'0 0.0
2018-Feb-13 07:00N 58°53' E 011°09'0 0.0
2018-Feb-13 06:30N 58°53' E 011°09'0 0.0
2018-Feb-13 06:00N 58°53' E 011°09'0 0.0
2018-Feb-13 05:30N 58°53' E 011°09'0 0.0
2018-Feb-13 05:00N 58°53' E 011°09'0 0.0
2018-Feb-13 04:30N 58°53' E 011°09'0 0.0
2018-Feb-13 04:00N 58°53' E 011°09'0 0.0
2018-Feb-13 03:27N 58°53' E 011°09'0 0.0
2018-Feb-13 03:00N 58°53' E 011°09'0 0.0
2018-Feb-13 02:30N 58°53' E 011°09'0 0.0
2018-Feb-13 02:00N 58°53' E 011°09'0 0.0
2018-Feb-13 01:30N 58°53' E 011°09'0 0.0
2018-Feb-13 01:00N 58°53' E 011°09'0 0.0
2018-Feb-13 00:30N 58°53' E 011°09'0 0.0
2018-Feb-13 00:00N 58°53' E 011°09'0 0.0
2018-Feb-12 23:30N 58°53' E 011°09'0 0.0
2018-Feb-12 23:00N 58°53' E 011°09'0 0.0
2018-Feb-12 22:30N 58°53' E 011°09'0 0.0
2018-Feb-12 22:00N 58°53' E 011°09'0 0.0
2018-Feb-12 21:30N 58°53' E 011°09'0 0.0
2018-Feb-12 21:00N 58°53' E 011°09'0 0.0
2018-Feb-12 20:30N 58°53' E 011°09'0 0.0
2018-Feb-12 20:00N 58°53' E 011°09'0 0.0
2018-Feb-12 19:30N 58°53' E 011°09'0 0.0
2018-Feb-12 19:00N 58°53' E 011°09'0 0.0
2018-Feb-12 18:30N 58°53' E 011°09'0 0.0
2018-Feb-12 18:00N 58°53' E 011°09'0 0.0
2018-Feb-12 17:30N 58°53' E 011°09'0 0.0
2018-Feb-12 16:57N 58°53' E 011°09'0 0.0
2018-Feb-12 16:30N 58°53' E 011°09'0 0.0
2018-Feb-12 16:00N 58°53' E 011°09'0 0.0
2018-Feb-12 15:18N 58°53' E 011°09'0 0.0
2018-Feb-12 15:00N 58°53' E 011°09'0 0.0
2018-Feb-12 14:30N 58°53' E 011°09'0 0.0
2018-Feb-12 14:00N 58°53' E 011°09'0 0.0
2018-Feb-12 13:30N 58°53' E 011°09'0 0.0
2018-Feb-12 13:00N 58°53' E 011°09'0 0.0
2018-Feb-12 12:30N 58°53' E 011°09'0 0.0
2018-Feb-12 12:00N 58°53' E 011°09'0 0.0
2018-Feb-12 11:30N 58°53' E 011°09'0 0.0
2018-Feb-12 11:00N 58°53' E 011°09'0 0.0
2018-Feb-12 10:30N 58°53' E 011°09'0 0.0
2018-Feb-12 10:00N 58°53' E 011°09'0 0.0
2018-Feb-12 09:30N 58°53' E 011°09'0 0.0
2018-Feb-12 09:00N 58°53' E 011°09'0 0.0
2018-Feb-12 08:30N 58°53' E 011°09'0 0.0
2018-Feb-12 08:00N 58°53' E 011°09'0 0.0
2018-Feb-12 07:30N 58°53' E 011°09'0 0.0
2018-Feb-12 07:00N 58°53' E 011°09'0 0.0
2018-Feb-12 06:30N 58°53' E 011°09'0 0.0
2018-Feb-12 06:00N 58°53' E 011°09'0 0.0
2018-Feb-12 05:30N 58°53' E 011°09'0 0.0
2018-Feb-12 05:00N 58°53' E 011°09'0 0.0
2018-Feb-12 04:30N 58°53' E 011°09'0 0.0
2018-Feb-12 04:00N 58°53' E 011°09'0 0.0
2018-Feb-12 03:30N 58°53' E 011°09'0 0.0
2018-Feb-12 03:00N 58°53' E 011°09'0 0.0
2018-Feb-12 02:30N 58°53' E 011°09'0 0.0
2018-Feb-12 02:00N 58°53' E 011°09'0 0.0
2018-Feb-12 01:30N 58°53' E 011°09'0 0.0
2018-Feb-12 01:00N 58°53' E 011°09'0 0.0
2018-Feb-12 00:27N 58°53' E 011°09'0 0.0
2018-Feb-12 00:00N 58°53' E 011°09'0 0.0
2018-Feb-11 23:27N 58°53' E 011°09'0 0.0
2018-Feb-11 23:00N 58°53' E 011°09'0 0.0
2018-Feb-11 22:30N 58°53' E 011°09'0 0.0
2018-Feb-11 22:00N 58°53' E 011°09'0 0.0
2018-Feb-11 21:30N 58°53' E 011°09'0 0.0
2018-Feb-11 21:00N 58°53' E 011°09'0 0.0
2018-Feb-11 20:27N 58°53' E 011°09'0 0.0
2018-Feb-11 20:00N 58°53' E 011°09'0 0.0
2018-Feb-11 19:30N 58°53' E 011°09'0 0.0
2018-Feb-11 18:57N 58°53' E 011°09'0 0.0
2018-Feb-11 18:30N 58°53' E 011°09'0 0.0
2018-Feb-11 18:00N 58°53' E 011°09'0 0.0
2018-Feb-11 17:30N 58°53' E 011°09'0 0.0
2018-Feb-11 17:00N 58°53' E 011°09'0 0.0
2018-Feb-11 16:30N 58°53' E 011°09'0 0.0
2018-Feb-11 16:00N 58°53' E 011°09'0 0.0
2018-Feb-11 15:30N 58°53' E 011°09'0 0.0
2018-Feb-11 15:00N 58°53' E 011°09'0 0.0
2018-Feb-11 14:30N 58°53' E 011°09'0 0.0
2018-Feb-11 14:00N 58°53' E 011°09'0 0.0
2018-Feb-11 13:30N 58°53' E 011°09'0 0.0
2018-Feb-11 13:00N 58°53' E 011°09'0 0.0
2018-Feb-11 12:30N 58°53' E 011°09'0 0.0
2018-Feb-11 12:00N 58°53' E 011°09'0 0.0
2018-Feb-11 11:30N 58°53' E 011°09'0 0.0
2018-Feb-11 11:00N 58°53' E 011°09'0 0.0
2018-Feb-11 10:30N 58°53' E 011°09'0 0.0
2018-Feb-11 10:00N 58°53' E 011°09'0 0.0
2018-Feb-11 09:30N 58°53' E 011°09'0 0.0
2018-Feb-11 09:00N 58°53' E 011°09'0 0.0
2018-Feb-11 08:30N 58°53' E 011°09'0 0.0
2018-Feb-11 08:00N 58°53' E 011°09'0 0.0
2018-Feb-11 07:30N 58°53' E 011°09'0 0.0
2018-Feb-11 06:57N 58°53' E 011°09'0 0.0
2018-Feb-11 06:30N 58°53' E 011°09'0 0.0
2018-Feb-11 06:00N 58°53' E 011°09'0 0.0
2018-Feb-11 05:30N 58°53' E 011°09'0 0.0
2018-Feb-11 05:00N 58°53' E 011°09'0 0.0
2018-Feb-11 04:30N 58°53' E 011°09'0 0.0
2018-Feb-11 04:00N 58°53' E 011°09'0 0.0
2018-Feb-11 03:30N 58°53' E 011°09'  

Dump ship's entire track history